createdAt,value
2017-09-05T05:28:03.029Z,22.50
2017-09-05T05:30:37.758Z,22.70
2017-09-05T05:38:47.926Z,23.20
2017-09-05T11:56:25.105Z,29.90
2017-09-05T11:59:08.665Z,26.20
2017-09-05T12:01:48.483Z,26.90
2017-09-05T12:04:22.640Z,27.90
2017-09-05T12:06:58.997Z,28.60
2017-09-05T12:09:32.005Z,29.30
2017-09-05T12:27:16.745Z,31.40
2017-09-05T15:48:09.114Z,29.60
2017-09-05T15:50:37.903Z,29.60
2017-09-05T15:53:16.778Z,29.30
2017-09-05T15:55:49.836Z,29.30
2017-09-05T15:58:26.436Z,29.30
2017-09-05T16:00:58.978Z,29.10
2017-09-05T16:03:31.285Z,28.90
2017-09-05T16:06:04.360Z,28.60
2017-09-05T16:11:28.244Z,28.30
2017-09-05T16:13:58.392Z,28.30
2017-09-05T16:16:28.561Z,28.40
2017-09-05T16:18:57.348Z,28.40
2017-09-05T16:21:32.229Z,28.50
2017-09-05T16:26:36.435Z,28.70
2017-09-05T16:29:11.808Z,28.80
2017-09-05T16:31:42.876Z,28.80
2017-09-05T16:34:16.967Z,28.80
2017-09-05T16:36:46.153Z,28.70
2017-09-05T16:39:19.096Z,28.60
2017-09-05T16:44:44.541Z,28.40
2017-09-05T16:47:17.377Z,28.20
2017-09-05T16:49:57.689Z,28.20
2017-09-05T16:52:30.596Z,28.10
2017-09-05T16:54:59.710Z,28.10
2017-09-05T16:57:33.895Z,28.10
2017-09-05T17:00:08.270Z,28.10
2017-09-05T17:02:38.586Z,28.00
2017-09-05T17:08:04.207Z,27.80
2017-09-05T17:13:48.076Z,27.50
2017-09-05T17:16:18.850Z,27.40
2017-09-05T17:18:47.716Z,27.30
2017-09-05T17:21:16.067Z,27.20
2017-09-05T17:23:45.569Z,27.20
2017-09-05T17:26:21.131Z,27.10
2017-09-05T17:31:49.138Z,26.90
2017-09-05T17:34:27.041Z,26.90
2017-09-05T17:36:56.167Z,26.70
2017-09-05T17:39:24.961Z,26.40
2017-09-05T17:41:53.652Z,26.50
2017-09-05T17:44:22.208Z,27.00
2017-09-05T17:46:50.844Z,27.50
2017-09-05T17:49:20.832Z,27.80
2017-09-05T17:51:49.741Z,28.00
2017-09-05T17:54:18.404Z,28.20
2017-09-05T17:56:46.783Z,28.20
2017-09-05T17:59:15.374Z,28.10
2017-09-05T18:01:44.660Z,28.00
2017-09-05T18:04:13.555Z,27.90
2017-09-05T18:06:42.467Z,27.70
2017-09-05T18:09:11.232Z,27.50
2017-09-05T18:11:40.119Z,27.40
2017-09-05T18:14:08.739Z,27.40
2017-09-05T18:16:37.947Z,27.40
2017-09-05T18:19:06.795Z,27.40
2017-09-05T18:21:40.272Z,27.20
2017-09-05T18:24:09.305Z,26.90
2017-09-05T18:29:29.221Z,26.70
2017-09-05T18:31:58.520Z,26.20
2017-09-05T18:34:26.909Z,26.20
2017-09-05T18:37:02.621Z,25.80
2017-09-05T18:39:32.419Z,25.70
2017-09-05T18:42:01.348Z,25.70
2017-09-05T18:44:30.432Z,25.70
2017-09-05T18:47:00.064Z,25.70
